sensor_id;sensor_type;location;lat;lon;timestamp;pressure;altitude;pressure_sealevel;temperature;humidity
54306;BME280;66145;45.188;5.712;2023-06-22T00:00:52;99002.31;;;22.69;65.29
54306;BME280;66145;45.188;5.712;2023-06-22T00:03:19;98990.00;;;22.67;65.23
54306;BME280;66145;45.188;5.712;2023-06-22T00:05:46;98998.81;;;22.72;65.29
54306;BME280;66145;45.188;5.712;2023-06-22T00:08:11;98983.25;;;22.64;65.45
54306;BME280;66145;45.188;5.712;2023-06-22T00:10:37;98989.22;;;22.66;65.38
54306;BME280;66145;45.188;5.712;2023-06-22T00:13:02;98984.03;;;22.64;65.35
54306;BME280;66145;45.188;5.712;2023-06-22T00:15:28;98981.16;;;22.61;65.37
54306;BME280;66145;45.188;5.712;2023-06-22T00:17:54;98996.91;;;22.73;65.42
54306;BME280;66145;45.188;5.712;2023-06-22T00:20:19;98995.28;;;22.72;65.66
54306;BME280;66145;45.188;5.712;2023-06-22T00:22:44;98990.09;;;22.70;65.51
54306;BME280;66145;45.188;5.712;2023-06-22T01:45:58;98927.75;;;22.66;65.58
54306;BME280;66145;45.188;5.712;2023-06-22T01:48:23;98925.34;;;22.64;65.57
54306;BME280;66145;45.188;5.712;2023-06-22T01:50:51;98924.31;;;22.69;65.58
54306;BME280;66145;45.188;5.712;2023-06-22T01:53:16;98936.94;;;22.70;65.51
54306;BME280;66145;45.188;5.712;2023-06-22T01:55:42;98936.94;;;22.70;65.46
54306;BME280;66145;45.188;5.712;2023-06-22T01:58:07;98939.69;;;22.70;65.44
54306;BME280;66145;45.188;5.712;2023-06-22T02:00:37;98946.00;;;22.70;65.37
54306;BME280;66145;45.188;5.712;2023-06-22T02:03:26;98946.00;;;22.70;65.49
54306;BME280;66145;45.188;5.712;2023-06-22T02:05:58;98946.00;;;22.70;65.56
54306;BME280;66145;45.188;5.712;2023-06-22T02:08:30;98939.22;;;22.68;65.32
54306;BME280;66145;45.188;5.712;2023-06-22T02:10:58;98949.56;;;22.71;65.48
54306;BME280;66145;45.188;5.712;2023-06-22T02:13:25;98950.25;;;22.68;65.51
54306;BME280;66145;45.188;5.712;2023-06-22T02:15:51;98951.19;;;22.72;65.57
54306;BME280;66145;45.188;5.712;2023-06-22T02:18:16;98946.00;;;22.70;65.45
54306;BME280;66145;45.188;5.712;2023-06-22T02:20:42;98943.97;;;22.67;65.45
54306;BME280;66145;45.188;5.712;2023-06-22T02:23:07;98950.34;;;22.71;65.56
54306;BME280;66145;45.188;5.712;2023-06-22T02:25:34;98947.50;;;22.68;65.48
54306;BME280;66145;45.188;5.712;2023-06-22T02:27:59;98957.47;;;22.72;65.49
54306;BME280;66145;45.188;5.712;2023-06-22T02:30:25;98951.88;;;22.69;65.54
54306;BME280;66145;45.188;5.712;2023-06-22T02:32:50;98938.09;;;22.69;65.57
54306;BME280;66145;45.188;5.712;2023-06-22T02:35:29;98944.06;;;22.71;65.39
54306;BME280;66145;45.188;5.712;2023-06-22T02:38:00;98944.75;;;22.68;65.55
54306;BME280;66145;45.188;5.712;2023-06-22T02:40:26;98945.19;;;22.70;65.60
54306;BME280;66145;45.188;5.712;2023-06-22T02:42:51;98939.69;;;22.70;65.45
54306;BME280;66145;45.188;5.712;2023-06-22T02:45:17;98940.06;;;22.68;65.90
54306;BME280;66145;45.188;5.712;2023-06-22T02:47:42;98942.00;;;22.68;65.51
54306;BME280;66145;45.188;5.712;2023-06-22T02:50:08;98947.97;;;22.70;65.32
54306;BME280;66145;45.188;5.712;2023-06-22T02:52:33;98942.44;;;22.70;65.49
54306;BME280;66145;45.188;5.712;2023-06-22T02:54:59;98944.41;;;22.69;65.52
54306;BME280;66145;45.188;5.712;2023-06-22T02:57:24;98939.22;;;22.68;65.62
54306;BME280;66145;45.188;5.712;2023-06-22T02:59:49;98934.88;;;22.67;65.50
54306;BME280;66145;45.188;5.712;2023-06-22T03:02:15;98936.56;;;22.71;65.64
54306;BME280;66145;45.188;5.712;2023-06-22T03:04:40;98951.88;;;22.69;65.52
54306;BME280;66145;45.188;5.712;2023-06-22T03:07:05;98968.88;;;22.71;65.56
54306;BME280;66145;45.188;5.712;2023-06-22T03:09:31;98960.97;;;22.69;65.56
54306;BME280;66145;45.188;5.712;2023-06-22T03:11:56;98964.50;;;22.70;65.58
54306;BME280;66145;45.188;5.712;2023-06-22T03:14:22;98965.28;;;22.70;65.31
54306;BME280;66145;45.188;5.712;2023-06-22T03:16:47;98959.34;;;22.68;65.45
54306;BME280;66145;45.188;5.712;2023-06-22T03:19:13;98981.84;;;22.70;65.52
54306;BME280;66145;45.188;5.712;2023-06-22T03:21:39;98956.59;;;22.68;65.56
54306;BME280;66145;45.188;5.712;2023-06-22T03:24:06;98959.78;;;22.70;65.59
54306;BME280;66145;45.188;5.712;2023-06-22T03:26:31;98952.69;;;22.69;65.53
54306;BME280;66145;45.188;5.712;2023-06-22T03:28:56;98960.13;;;22.69;65.52
54306;BME280;66145;45.188;5.712;2023-06-22T03:31:22;98978.28;;;22.70;65.43
54306;BME280;66145;45.188;5.712;2023-06-22T03:33:49;98971.97;;;22.69;65.63
54306;BME280;66145;45.188;5.712;2023-06-22T03:36:16;98992.06;;;22.70;65.57
54306;BME280;66145;45.188;5.712;2023-06-22T03:38:48;99000.34;;;22.70;65.39
54306;BME280;66145;45.188;5.712;2023-06-22T03:41:14;99023.53;;;22.69;65.49
54306;BME280;66145;45.188;5.712;2023-06-22T03:43:39;99065.34;;;22.71;65.43
54306;BME280;66145;45.188;5.712;2023-06-22T03:46:05;99088.19;;;22.71;65.36
54306;BME280;66145;45.188;5.712;2023-06-22T03:48:31;99100.03;;;22.72;65.45
54306;BME280;66145;45.188;5.712;2023-06-22T03:50:56;99112.56;;;22.69;65.51
54306;BME280;66145;45.188;5.712;2023-06-22T03:53:21;99118.88;;;22.70;65.48
54306;BME280;66145;45.188;5.712;2023-06-22T03:55:51;99116.81;;;22.67;65.54
54306;BME280;66145;45.188;5.712;2023-06-22T03:58:17;99129.91;;;22.70;65.53
54306;BME280;66145;45.188;5.712;2023-06-22T04:00:50;99128.66;;;22.67;65.56
54306;BME280;66145;45.188;5.712;2023-06-22T04:03:16;99152.75;;;22.70;65.51
54306;BME280;66145;45.188;5.712;2023-06-22T04:05:44;99184.25;;;22.69;65.44
54306;BME280;66145;45.188;5.712;2023-06-22T04:08:09;99181.50;;;22.69;65.57
54306;BME280;66145;45.188;5.712;2023-06-22T04:10:34;99181.50;;;22.69;65.49
54306;BME280;66145;45.188;5.712;2023-06-22T04:13:00;99222.03;;;22.69;65.39
54306;BME280;66145;45.188;5.712;2023-06-22T04:15:25;99221.25;;;22.68;65.32
54306;BME280;66145;45.188;5.712;2023-06-22T04:17:51;99228.69;;;22.68;65.51
54306;BME280;66145;45.188;5.712;2023-06-22T04:20:16;99224.78;;;22.69;65.76
54306;BME280;66145;45.188;5.712;2023-06-22T04:22:42;99253.19;;;22.69;65.57
54306;BME280;66145;45.188;5.712;2023-06-22T04:25:07;99214.91;;;22.68;65.61
54306;BME280;66145;45.188;5.712;2023-06-22T04:27:33;99258.69;;;22.69;65.60
54306;BME280;66145;45.188;5.712;2023-06-22T04:30:03;99262.59;;;22.68;65.59
54306;BME280;66145;45.188;5.712;2023-06-22T04:32:28;99273.63;;;22.68;65.44
54306;BME280;66145;45.188;5.712;2023-06-22T04:34:54;99283.50;;;22.69;65.40
54306;BME280;66145;45.188;5.712;2023-06-22T04:37:19;99253.50;;;22.68;65.45
54306;BME280;66145;45.188;5.712;2023-06-22T04:39:44;99247.19;;;22.67;65.49
54306;BME280;66145;45.188;5.712;2023-06-22T04:42:09;99267.28;;;22.68;65.51
54306;BME280;66145;45.188;5.712;2023-06-22T04:44:35;99272.78;;;22.68;65.68
54306;BME280;66145;45.188;5.712;2023-06-22T04:47:01;99239.72;;;22.68;65.66
54306;BME280;66145;45.188;5.712;2023-06-22T04:49:29;99199.50;;;22.67;65.43
54306;BME280;66145;45.188;5.712;2023-06-22T04:52:01;99137.94;;;22.62;65.50
54306;BME280;66145;45.188;5.712;2023-06-22T04:54:27;99146.34;;;22.66;65.68
54306;BME280;66145;45.188;5.712;2023-06-22T04:56:52;99153.78;;;22.66;65.61
54306;BME280;66145;45.188;5.712;2023-06-22T04:59:24;99159.31;;;22.66;65.54
54306;BME280;66145;45.188;5.712;2023-06-22T05:01:54;99162.06;;;22.66;65.19
54306;BME280;66145;45.188;5.712;2023-06-22T05:04:21;99154.59;;;22.66;65.34
54306;BME280;66145;45.188;5.712;2023-06-22T05:06:47;99146.34;;;22.66;65.59
54306;BME280;66145;45.188;5.712;2023-06-22T05:09:12;99118.31;;;22.64;65.50
54306;BME280;66145;45.188;5.712;2023-06-22T05:11:38;99137.25;;;22.66;65.46
54306;BME280;66145;45.188;5.712;2023-06-22T05:14:03;99151.03;;;22.66;65.55
54306;BME280;66145;45.188;5.712;2023-06-22T05:16:28;99134.84;;;22.64;65.41
54306;BME280;66145;45.188;5.712;2023-06-22T05:18:54;99141.63;;;22.67;65.55
54306;BME280;66145;45.188;5.712;2023-06-22T05:21:25;99144.38;;;22.67;65.39
54306;BME280;66145;45.188;5.712;2023-06-22T05:23:51;99153.78;;;22.66;65.50
54306;BME280;66145;45.188;5.712;2023-06-22T05:26:18;99124.28;;;22.66;65.62
54306;BME280;66145;45.188;5.712;2023-06-22T05:28:43;99141.97;;;22.65;65.62
54306;BME280;66145;45.188;5.712;2023-06-22T05:31:12;99135.16;;;22.62;65.42
54306;BME280;66145;45.188;5.712;2023-06-22T05:33:37;99134.84;;;22.64;65.58
54306;BME280;66145;45.188;5.712;2023-06-22T05:36:03;99141.16;;;22.64;65.37
54306;BME280;66145;45.188;5.712;2023-06-22T05:38:28;99140.34;;;22.64;65.44
54306;BME280;66145;45.188;5.712;2023-06-22T05:40:53;99137.25;;;22.66;65.54
54306;BME280;66145;45.188;5.712;2023-06-22T05:43:19;99149.88;;;22.67;65.45
54306;BME280;66145;45.188;5.712;2023-06-22T05:45:44;99154.16;;;22.64;65.62
54306;BME280;66145;45.188;5.712;2023-06-22T05:48:09;99160.91;;;22.67;65.43
54306;BME280;66145;45.188;5.712;2023-06-22T05:50:36;99151.38;;;22.64;65.40
54306;BME280;66145;45.188;5.712;2023-06-22T05:53:02;99156.06;;;22.63;65.42
54306;BME280;66145;45.188;5.712;2023-06-22T05:55:27;99145.06;;;22.63;65.45
54306;BME280;66145;45.188;5.712;2023-06-22T05:57:52;99137.50;;;22.60;65.57
54306;BME280;66145;45.188;5.712;2023-06-22T06:00:18;99126.56;;;22.64;65.52
54306;BME280;66145;45.188;5.712;2023-06-22T06:02:44;99121.84;;;22.64;65.57
54306;BME280;66145;45.188;5.712;2023-06-22T06:05:12;99119.81;;;22.61;65.78
54306;BME280;66145;45.188;5.712;2023-06-22T06:07:41;99138.41;;;22.64;65.54
54306;BME280;66145;45.188;5.712;2023-06-22T06:10:07;99131.28;;;22.63;65.42
54306;BME280;66145;45.188;5.712;2023-06-22T06:12:33;99122.22;;;22.63;65.57
54306;BME280;66145;45.188;5.712;2023-06-22T06:14:58;99129.66;;;22.62;65.38
54306;BME280;66145;45.188;5.712;2023-06-22T06:17:23;99101.78;;;22.64;65.48
54306;BME280;66145;45.188;5.712;2023-06-22T06:19:48;99098.56;;;22.62;65.18
54306;BME280;66145;45.188;5.712;2023-06-22T06:22:14;99091.31;;;22.57;65.49
54306;BME280;66145;45.188;5.712;2023-06-22T06:24:39;99096.59;;;22.62;65.31
54306;BME280;66145;45.188;5.712;2023-06-22T06:27:04;99087.16;;;22.63;65.48
54306;BME280;66145;45.188;5.712;2023-06-22T06:29:31;99091.06;;;22.62;65.52
54306;BME280;66145;45.188;5.712;2023-06-22T06:31:56;99099.00;;;22.64;65.49
54306;BME280;66145;45.188;5.712;2023-06-22T06:34:22;99085.91;;;22.61;65.46
54306;BME280;66145;45.188;5.712;2023-06-22T06:36:47;99099.69;;;22.61;65.58
54306;BME280;66145;45.188;5.712;2023-06-22T06:39:12;99100.50;;;22.61;65.41
54306;BME280;66145;45.188;5.712;2023-06-22T06:41:38;99092.69;;;22.63;65.31
54306;BME280;66145;45.188;5.712;2023-06-22T06:44:03;99085.44;;;22.59;65.69
54306;BME280;66145;45.188;5.712;2023-06-22T06:46:29;99107.97;;;22.61;65.52
54306;BME280;66145;45.188;5.712;2023-06-22T06:48:54;99099.34;;;22.62;65.62
54306;BME280;66145;45.188;5.712;2023-06-22T06:51:19;99119.44;;;22.63;65.49
54306;BME280;66145;45.188;5.712;2023-06-22T06:53:44;99135.63;;;22.64;65.49
54306;BME280;66145;45.188;5.712;2023-06-22T06:56:10;99130.84;;;22.61;65.45
54306;BME280;66145;45.188;5.712;2023-06-22T06:58:36;99123.00;;;22.63;65.28
54306;BME280;66145;45.188;5.712;2023-06-22T07:01:01;99101.66;;;22.60;65.46
54306;BME280;66145;45.188;5.712;2023-06-22T07:03:28;99090.63;;;22.60;65.42
54306;BME280;66145;45.188;5.712;2023-06-22T07:05:53;99089.13;;;22.63;65.50
54306;BME280;66145;45.188;5.712;2023-06-22T07:08:18;99066.25;;;22.62;65.52
54306;BME280;66145;45.188;5.712;2023-06-22T07:10:44;99072.94;;;22.61;65.45
54306;BME280;66145;45.188;5.712;2023-06-22T07:13:09;99086.94;;;22.56;65.37
54306;BME280;66145;45.188;5.712;2023-06-22T07:15:34;99101.31;;;22.62;65.52
54306;BME280;66145;45.188;5.712;2023-06-22T07:18:00;99096.25;;;22.64;65.48
54306;BME280;66145;45.188;5.712;2023-06-22T07:20:25;99100.16;;;22.63;65.34
54306;BME280;66145;45.188;5.712;2023-06-22T07:22:51;99100.16;;;22.63;65.54
54306;BME280;66145;45.188;5.712;2023-06-22T07:25:17;99078.09;;;22.63;65.49
54306;BME280;66145;45.188;5.712;2023-06-22T07:28:11;99098.19;;;22.63;65.44
54306;BME280;66145;45.188;5.712;2023-06-22T07:30:37;99126.47;;;22.60;65.52
54306;BME280;66145;45.188;5.712;2023-06-22T07:33:02;99150.56;;;22.63;65.43
54306;BME280;66145;45.188;5.712;2023-06-22T07:35:33;99140.34;;;22.64;65.42
54306;BME280;66145;45.188;5.712;2023-06-22T07:37:59;99089.34;;;22.58;65.55
54306;BME280;66145;45.188;5.712;2023-06-22T07:40:25;99067.44;;;22.61;65.58
54306;BME280;66145;45.188;5.712;2023-06-22T07:42:50;99058.69;;;22.59;65.46
54306;BME280;66145;45.188;5.712;2023-06-22T07:45:17;99082.38;;;22.60;65.46
54306;BME280;66145;45.188;5.712;2023-06-22T07:47:43;99098.56;;;22.62;65.42
54306;BME280;66145;45.188;5.712;2023-06-22T07:50:09;99115.09;;;22.62;65.49
54306;BME280;66145;45.188;5.712;2023-06-22T07:52:35;99132.41;;;22.62;65.43
54306;BME280;66145;45.188;5.712;2023-06-22T07:55:01;99148.97;;;22.62;65.34
54306;BME280;66145;45.188;5.712;2023-06-22T07:57:27;99142.66;;;22.62;65.38
54306;BME280;66145;45.188;5.712;2023-06-22T07:59:59;99099.69;;;22.61;65.59
54306;BME280;66145;45.188;5.712;2023-06-22T08:02:25;99105.22;;;22.61;65.50
54306;BME280;66145;45.188;5.712;2023-06-22T08:04:50;99115.78;;;22.59;65.46
54306;BME280;66145;45.188;5.712;2023-06-22T08:07:15;99121.75;;;22.61;65.43
54306;BME280;66145;45.188;5.712;2023-06-22T08:09:46;99136.78;;;22.63;65.48
54306;BME280;66145;45.188;5.712;2023-06-22T08:12:12;99129.22;;;22.60;65.54
54306;BME280;66145;45.188;5.712;2023-06-22T08:14:38;99115.78;;;22.59;65.58
54306;BME280;66145;45.188;5.712;2023-06-22T08:17:04;99109.56;;;22.62;65.32
54306;BME280;66145;45.188;5.712;2023-06-22T08:19:29;99119.81;;;22.61;65.38
54306;BME280;66145;45.188;5.712;2023-06-22T08:21:55;99131.63;;;22.62;65.45
54306;BME280;66145;45.188;5.712;2023-06-22T08:24:20;99132.78;;;22.61;65.61
54306;BME280;66145;45.188;5.712;2023-06-22T08:26:45;99142.19;;;22.60;65.34
54306;BME280;66145;45.188;5.712;2023-06-22T08:29:11;99147.03;;;22.63;65.48
54306;BME280;66145;45.188;5.712;2023-06-22T08:31:36;99148.97;;;22.62;65.46
54306;BME280;66145;45.188;5.712;2023-06-22T08:34:02;99158.03;;;22.63;65.48
54306;BME280;66145;45.188;5.712;2023-06-22T08:36:27;99155.66;;;22.61;65.41
54306;BME280;66145;45.188;5.712;2023-06-22T08:38:58;99144.63;;;22.61;65.43
54306;BME280;66145;45.188;5.712;2023-06-22T08:41:26;99144.63;;;22.61;65.46
54306;BME280;66145;45.188;5.712;2023-06-22T08:43:52;99136.69;;;22.60;65.45
54306;BME280;66145;45.188;5.712;2023-06-22T08:46:18;99154.03;;;22.60;65.52
54306;BME280;66145;45.188;5.712;2023-06-22T08:48:46;99166.66;;;22.61;65.56
54306;BME280;66145;45.188;5.712;2023-06-22T08:51:12;99163.78;;;22.58;65.34
54306;BME280;66145;45.188;5.712;2023-06-22T08:53:39;99146.09;;;22.59;65.44
54306;BME280;66145;45.188;5.712;2023-06-22T08:56:04;99152.41;;;22.59;65.44
54306;BME280;66145;45.188;5.712;2023-06-22T08:58:29;99158.41;;;22.61;65.39
54306;BME280;66145;45.188;5.712;2023-06-22T09:00:55;99160.34;;;22.61;65.36
54306;BME280;66145;45.188;5.712;2023-06-22T09:03:20;99178.50;;;22.62;65.41
54306;BME280;66145;45.188;5.712;2023-06-22T09:05:45;99176.09;;;22.60;65.33
54306;BME280;66145;45.188;5.712;2023-06-22T09:08:11;99185.16;;;22.61;65.50
54306;BME280;66145;45.188;5.712;2023-06-22T09:10:36;99185.97;;;22.61;65.44
54306;BME280;66145;45.188;5.712;2023-06-22T09:13:02;99181.13;;;22.58;65.42
54306;BME280;66145;45.188;5.712;2023-06-22T09:15:27;99186.66;;;22.58;65.54
54306;BME280;66145;45.188;5.712;2023-06-22T09:17:52;99186.28;;;22.60;65.51
54306;BME280;66145;45.188;5.712;2023-06-22T09:20:19;99181.59;;;22.60;65.39
54306;BME280;66145;45.188;5.712;2023-06-22T09:22:45;99183.53;;;22.60;65.50
54306;BME280;66145;45.188;5.712;2023-06-22T09:25:10;99164.25;;;22.60;65.36
54306;BME280;66145;45.188;5.712;2023-06-22T09:27:36;99166.19;;;22.59;65.46
54306;BME280;66145;45.188;5.712;2023-06-22T09:30:01;99157.47;;;22.57;65.46
54306;BME280;66145;45.188;5.712;2023-06-22T09:32:28;99167.81;;;22.60;65.24
54306;BME280;66145;45.188;5.712;2023-06-22T09:34:53;99167.47;;;22.62;65.43
54306;BME280;66145;45.188;5.712;2023-06-22T09:37:19;99171.72;;;22.59;65.54
54306;BME280;66145;45.188;5.712;2023-06-22T09:39:45;99195.69;;;22.59;65.30
54306;BME280;66145;45.188;5.712;2023-06-22T09:42:10;99181.13;;;22.58;65.29
54306;BME280;66145;45.188;5.712;2023-06-22T09:44:36;99163.91;;;22.61;65.42
54306;BME280;66145;45.188;5.712;2023-06-22T09:47:02;99156.31;;;22.58;65.55
54306;BME280;66145;45.188;5.712;2023-06-22T09:49:27;99168.13;;;22.59;65.40
54306;BME280;66145;45.188;5.712;2023-06-22T09:51:52;99183.53;;;22.60;65.41
54306;BME280;66145;45.188;5.712;2023-06-22T09:54:18;99205.25;;;22.61;65.42
54306;BME280;66145;45.188;5.712;2023-06-22T09:56:43;99210.31;;;22.59;65.45
54306;BME280;66145;45.188;5.712;2023-06-22T09:59:09;99205.59;;;22.60;65.47
54306;BME280;66145;45.188;5.712;2023-06-22T10:01:34;99189.03;;;22.60;65.29
54306;BME280;66145;45.188;5.712;2023-06-22T10:03:59;99184.69;;;22.59;65.42
54306;BME280;66145;45.188;5.712;2023-06-22T10:06:24;99180.78;;;22.60;65.38
54306;BME280;66145;45.188;5.712;2023-06-22T10:08:51;99136.22;;;22.58;65.50
54306;BME280;66145;45.188;5.712;2023-06-22T10:11:16;99124.38;;;22.57;65.41
54306;BME280;66145;45.188;5.712;2023-06-22T10:13:41;99157.56;;;22.61;65.35
54306;BME280;66145;45.188;5.712;2023-06-22T10:16:07;99169.28;;;22.58;65.48
54306;BME280;66145;45.188;5.712;2023-06-22T10:18:32;99179.63;;;22.61;65.43
54306;BME280;66145;45.188;5.712;2023-06-22T10:20:57;99152.41;;;22.59;65.45
54306;BME280;66145;45.188;5.712;2023-06-22T10:23:23;99153.22;;;22.60;65.60
54306;BME280;66145;45.188;5.712;2023-06-22T10:25:48;99161.00;;;22.58;65.37
54306;BME280;66145;45.188;5.712;2023-06-22T10:28:14;99152.41;;;22.59;65.57
54306;BME280;66145;45.188;5.712;2023-06-22T10:30:40;99146.09;;;22.59;65.45
54306;BME280;66145;45.188;5.712;2023-06-22T10:33:09;99104.75;;;22.59;65.51
54306;BME280;66145;45.188;5.712;2023-06-22T10:35:35;99109.47;;;22.58;65.55
54306;BME280;66145;45.188;5.712;2023-06-22T10:38:03;99116.59;;;22.59;65.50
54306;BME280;66145;45.188;5.712;2023-06-22T10:40:28;99138.19;;;22.57;65.22
54306;BME280;66145;45.188;5.712;2023-06-22T10:42:53;99154.03;;;22.60;65.51
54306;BME280;66145;45.188;5.712;2023-06-22T10:45:19;99148.84;;;22.59;65.45
54306;BME280;66145;45.188;5.712;2023-06-22T10:47:44;99113.84;;;22.59;65.38
54306;BME280;66145;45.188;5.712;2023-06-22T10:50:10;99074.44;;;22.59;65.53
54306;BME280;66145;45.188;5.712;2023-06-22T10:52:35;99078.69;;;22.56;65.42
54306;BME280;66145;45.188;5.712;2023-06-22T10:55:01;99106.72;;;22.58;65.39
54306;BME280;66145;45.188;5.712;2023-06-22T10:57:26;99104.41;;;22.60;65.42
54306;BME280;66145;45.188;5.712;2023-06-22T10:59:51;99094.53;;;22.59;65.37
54306;BME280;66145;45.188;5.712;2023-06-22T11:02:17;99093.41;;;22.60;65.40
54306;BME280;66145;45.188;5.712;2023-06-22T11:04:42;99075.56;;;22.58;65.32
54306;BME280;66145;45.188;5.712;2023-06-22T11:07:09;99061.78;;;22.58;65.26
54306;BME280;66145;45.188;5.712;2023-06-22T11:09:34;99060.63;;;22.59;65.46
54306;BME280;66145;45.188;5.712;2023-06-22T11:12:00;99057.41;;;22.57;65.32
54306;BME280;66145;45.188;5.712;2023-06-22T11:14:25;99046.84;;;22.59;65.47
54306;BME280;66145;45.188;5.712;2023-06-22T11:16:51;99032.28;;;22.58;65.41
54306;BME280;66145;45.188;5.712;2023-06-22T11:19:17;99038.94;;;22.57;65.43
54306;BME280;66145;45.188;5.712;2023-06-22T11:21:42;99057.19;;;22.62;65.31
54306;BME280;66145;45.188;5.712;2023-06-22T11:24:08;99053.97;;;22.60;65.13
54306;BME280;66145;45.188;5.712;2023-06-22T11:26:33;99057.09;;;22.58;65.20
54306;BME280;66145;45.188;5.712;2023-06-22T11:28:59;99063.41;;;22.59;65.32
54306;BME280;66145;45.188;5.712;2023-06-22T11:31:24;99070.19;;;22.61;65.28
54306;BME280;66145;45.188;5.712;2023-06-22T11:33:49;99070.53;;;22.60;65.25
54306;BME280;66145;45.188;5.712;2023-06-22T11:36:15;99079.16;;;22.58;65.46
54306;BME280;66145;45.188;5.712;2023-06-22T11:38:41;99088.66;;;22.61;65.26
54306;BME280;66145;45.188;5.712;2023-06-22T11:41:08;99078.69;;;22.56;65.41
54306;BME280;66145;45.188;5.712;2023-06-22T11:43:33;99059.50;;;22.60;65.31
54306;BME280;66145;45.188;5.712;2023-06-22T11:46:00;99047.69;;;22.59;65.34
54306;BME280;66145;45.188;5.712;2023-06-22T11:48:26;99049.63;;;22.59;65.25
54306;BME280;66145;45.188;5.712;2023-06-22T11:50:51;99051.59;;;22.58;65.34
54306;BME280;66145;45.188;5.712;2023-06-22T11:53:17;99052.38;;;22.59;65.26
54306;BME280;66145;45.188;5.712;2023-06-22T11:55:43;99056.75;;;22.60;65.33
54306;BME280;66145;45.188;5.712;2023-06-22T11:58:09;99046.84;;;22.59;65.18
54306;BME280;66145;45.188;5.712;2023-06-22T12:00:35;99044.09;;;22.59;65.35
54306;BME280;66145;45.188;5.712;2023-06-22T12:03:00;99044.94;;;22.59;65.00
54306;BME280;66145;45.188;5.712;2023-06-22T12:05:25;99055.13;;;22.59;65.33
54306;BME280;66145;45.188;5.712;2023-06-22T12:07:53;99060.75;;;22.62;65.20
54306;BME280;66145;45.188;5.712;2023-06-22T12:10:18;99065.47;;;22.62;65.16
54306;BME280;66145;45.188;5.712;2023-06-22T12:12:44;99062.25;;;22.60;65.29
54306;BME280;66145;45.188;5.712;2023-06-22T12:15:10;99056.63;;;22.56;65.32
54306;BME280;66145;45.188;5.712;2023-06-22T12:17:36;99068.22;;;22.62;65.33
54306;BME280;66145;45.188;5.712;2023-06-22T12:20:01;99067.44;;;22.61;65.20
54306;BME280;66145;45.188;5.712;2023-06-22T12:22:30;99065.00;;;22.60;65.25
54306;BME280;66145;45.188;5.712;2023-06-22T12:24:55;99065.47;;;22.62;65.24
54306;BME280;66145;45.188;5.712;2023-06-22T12:27:21;99062.25;;;22.60;65.26
54306;BME280;66145;45.188;5.712;2023-06-22T12:29:46;99068.91;;;22.59;65.33
54306;BME280;66145;45.188;5.712;2023-06-22T12:32:12;99076.03;;;22.60;65.25
54306;BME280;66145;45.188;5.712;2023-06-22T12:34:39;99067.44;;;22.61;65.09
54306;BME280;66145;45.188;5.712;2023-06-22T12:37:04;99057.09;;;22.58;65.14
54306;BME280;66145;45.188;5.712;2023-06-22T12:39:31;99063.88;;;22.61;65.23
54306;BME280;66145;45.188;5.712;2023-06-22T12:41:57;99052.03;;;22.60;65.02
54306;BME280;66145;45.188;5.712;2023-06-22T12:44:22;99045.72;;;22.60;65.38
54306;BME280;66145;45.188;5.712;2023-06-22T12:46:47;99034.22;;;22.58;65.16
54306;BME280;66145;45.188;5.712;2023-06-22T12:49:13;99027.25;;;22.60;65.22
54306;BME280;66145;45.188;5.712;2023-06-22T12:51:42;99028.84;;;22.61;65.10
54306;BME280;66145;45.188;5.712;2023-06-22T12:54:08;99024.13;;;22.62;65.24
54306;BME280;66145;45.188;5.712;2023-06-22T12:56:34;99004.25;;;22.56;65.30
54306;BME280;66145;45.188;5.712;2023-06-22T12:58:59;99008.72;;;22.61;64.81
54306;BME280;66145;45.188;5.712;2023-06-22T13:01:28;98999.22;;;22.58;65.09
54306;BME280;66145;45.188;5.712;2023-06-22T13:03:53;99007.13;;;22.60;64.98
54306;BME280;66145;45.188;5.712;2023-06-22T13:06:19;99009.56;;;22.61;65.13
54306;BME280;66145;45.188;5.712;2023-06-22T13:08:44;99011.94;;;22.63;65.09
54306;BME280;66145;45.188;5.712;2023-06-22T13:11:09;99009.97;;;22.63;65.07
54306;BME280;66145;45.188;5.712;2023-06-22T13:13:35;99004.47;;;22.63;65.08
54306;BME280;66145;45.188;5.712;2023-06-22T13:16:01;98988.66;;;22.60;65.09
54306;BME280;66145;45.188;5.712;2023-06-22T13:18:26;98982.00;;;22.61;65.21
54306;BME280;66145;45.188;5.712;2023-06-22T13:20:51;98974.41;;;22.58;65.00
54306;BME280;66145;45.188;5.712;2023-06-22T13:23:19;98989.06;;;22.62;65.13
54306;BME280;66145;45.188;5.712;2023-06-22T13:25:45;99011.94;;;22.63;65.20
54306;BME280;66145;45.188;5.712;2023-06-22T13:28:10;99018.59;;;22.62;65.00
54306;BME280;66145;45.188;5.712;2023-06-22T13:30:38;99043.41;;;22.62;65.13
54306;BME280;66145;45.188;5.712;2023-06-22T13:33:03;99061.56;;;22.63;65.05
54306;BME280;66145;45.188;5.712;2023-06-22T13:35:29;99070.63;;;22.63;65.19
54306;BME280;66145;45.188;5.712;2023-06-22T13:37:54;99079.72;;;22.64;65.17
54306;BME280;66145;45.188;5.712;2023-06-22T13:40:19;99107.97;;;22.61;65.17
54306;BME280;66145;45.188;5.712;2023-06-22T13:42:45;99129.66;;;22.62;65.08
54306;BME280;66145;45.188;5.712;2023-06-22T13:45:10;99161.59;;;22.63;64.99
54306;BME280;66145;45.188;5.712;2023-06-22T13:47:35;99190.78;;;22.64;65.03
54306;BME280;66145;45.188;5.712;2023-06-22T13:50:01;99274.75;;;22.67;65.18
54306;BME280;66145;45.188;5.712;2023-06-22T13:52:26;99296.00;;;22.67;65.02
54306;BME280;66145;45.188;5.712;2023-06-22T13:54:51;99358.25;;;22.68;65.19
54306;BME280;66145;45.188;5.712;2023-06-22T13:57:17;99362.16;;;22.67;65.21
54306;BME280;66145;45.188;5.712;2023-06-22T13:59:42;99371.09;;;22.63;65.44
54306;BME280;66145;45.188;5.712;2023-06-22T14:02:07;99421.19;;;22.66;65.27
54306;BME280;66145;45.188;5.712;2023-06-22T14:04:33;99490.47;;;22.64;65.27
54306;BME280;66145;45.188;5.712;2023-06-22T14:06:58;99535.06;;;22.66;65.18
54306;BME280;66145;45.188;5.712;2023-06-22T14:09:24;99535.06;;;22.66;65.14
54306;BME280;66145;45.188;5.712;2023-06-22T14:11:49;99540.56;;;22.66;65.23
54306;BME280;66145;45.188;5.712;2023-06-22T14:14:14;99536.06;;;22.61;65.10